createdAt,value
2018-08-04T00:00:01.347Z,27.06
2018-08-04T00:01:01.328Z,27.06
2018-08-04T00:02:01.566Z,27.06
2018-08-04T00:03:01.343Z,27.06
2018-08-04T00:04:01.356Z,27.09
2018-08-04T00:05:01.330Z,27.07
2018-08-04T00:06:01.404Z,27.06
2018-08-04T00:07:01.489Z,27.05
2018-08-04T00:08:01.410Z,27.03
2018-08-04T00:09:01.396Z,27.01
2018-08-04T00:10:01.452Z,26.96
2018-08-04T00:11:01.399Z,27.01
2018-08-04T00:12:01.396Z,26.96
2018-08-04T00:13:01.368Z,26.92
2018-08-04T00:14:01.418Z,26.88
2018-08-04T00:15:01.345Z,26.87
2018-08-04T00:16:01.329Z,26.88
2018-08-04T00:17:01.377Z,26.84
2018-08-04T00:18:01.446Z,26.79
2018-08-04T00:19:01.914Z,26.79
2018-08-04T00:20:01.356Z,26.71
2018-08-04T00:21:01.439Z,26.71
2018-08-04T00:22:01.730Z,26.74
2018-08-04T00:23:01.357Z,26.71
2018-08-04T00:24:01.392Z,26.71
2018-08-04T00:25:01.397Z,26.62
2018-08-04T00:26:01.472Z,26.61
2018-08-04T00:27:01.362Z,26.51
2018-08-04T00:28:01.515Z,26.44
2018-08-04T00:29:01.375Z,26.46
2018-08-04T00:30:01.382Z,26.47
2018-08-04T00:31:01.495Z,26.51
2018-08-04T00:32:01.406Z,26.48
2018-08-04T00:33:01.418Z,26.48
2018-08-04T00:34:01.384Z,26.4
2018-08-04T00:35:01.697Z,26.4
2018-08-04T00:36:01.402Z,26.37
2018-08-04T00:37:01.379Z,26.33
2018-08-04T00:38:01.425Z,26.33
2018-08-04T00:39:01.840Z,26.33
2018-08-04T00:40:01.411Z,26.25
2018-08-04T00:41:01.490Z,26.27
2018-08-04T00:42:01.505Z,26.27
2018-08-04T00:43:01.388Z,26.25
2018-08-04T00:44:01.472Z,26.23
2018-08-04T00:45:01.591Z,26.27
2018-08-04T00:46:01.479Z,26.26
2018-08-04T00:47:01.415Z,26.25
2018-08-04T00:48:01.559Z,26.26
2018-08-04T00:49:01.377Z,26.26
2018-08-04T00:50:02.134Z,26.23
2018-08-04T00:51:01.462Z,26.22
2018-08-04T00:52:01.740Z,26.25
2018-08-04T00:53:01.513Z,26.19
2018-08-04T00:54:01.389Z,26.16
2018-08-04T00:55:01.393Z,26.16
2018-08-04T00:56:01.458Z,26.15
2018-08-04T00:57:01.441Z,26.1
2018-08-04T00:58:01.510Z,26.09
2018-08-04T00:59:01.639Z,26.05
2018-08-04T01:00:01.751Z,26.08
2018-08-04T01:01:01.688Z,26.03
2018-08-04T01:02:01.493Z,26.02
2018-08-04T01:03:01.444Z,26
2018-08-04T01:04:01.420Z,26.02
2018-08-04T01:05:01.428Z,25.98
2018-08-04T01:06:01.424Z,26
2018-08-04T01:07:01.416Z,26.03
2018-08-04T01:08:01.427Z,26.06
2018-08-04T01:09:01.450Z,26.05
2018-08-04T01:10:01.420Z,26.05
2018-08-04T01:11:01.425Z,26.05
2018-08-04T01:12:01.443Z,26.06
2018-08-04T01:13:01.443Z,26.05
2018-08-04T01:14:01.457Z,26.09
2018-08-04T01:15:01.425Z,26.09
2018-08-04T01:16:01.477Z,26.1
2018-08-04T01:17:01.429Z,26.1
2018-08-04T01:18:01.442Z,26.1
2018-08-04T01:19:01.423Z,26.09
2018-08-04T01:20:01.441Z,26.06
2018-08-04T01:21:01.481Z,26.08
2018-08-04T01:22:01.436Z,26.09
2018-08-04T01:23:01.459Z,26.09
2018-08-04T01:24:01.584Z,26.08
2018-08-04T01:25:01.468Z,26.06
2018-08-04T01:26:01.471Z,26.1
2018-08-04T01:27:01.662Z,26.06
2018-08-04T01:28:01.511Z,26.08
2018-08-04T01:29:01.471Z,26.06
2018-08-04T01:30:01.650Z,26.05
2018-08-04T01:31:01.516Z,26.03
2018-08-04T01:32:01.649Z,26.05
2018-08-04T01:33:01.705Z,26.06
2018-08-04T01:34:01.664Z,26.06
2018-08-04T01:35:01.492Z,26.05
2018-08-04T01:36:01.476Z,26.06
2018-08-04T01:37:01.939Z,26.08
2018-08-04T01:38:01.479Z,26.09
2018-08-04T01:39:01.668Z,26.09
2018-08-04T01:40:01.471Z,26.05
2018-08-04T01:41:01.580Z,26.03
2018-08-04T01:42:02.170Z,26.03
2018-08-04T01:43:01.490Z,26
2018-08-04T01:44:01.644Z,25.99
2018-08-04T01:45:01.553Z,25.96
2018-08-04T01:46:01.546Z,25.96
2018-08-04T01:47:01.461Z,26
2018-08-04T01:48:01.602Z,25.99
2018-08-04T01:49:01.505Z,25.98
2018-08-04T01:50:01.479Z,25.98
2018-08-04T01:51:01.647Z,26
2018-08-04T01:52:01.496Z,25.99
2018-08-04T01:53:01.472Z,26
2018-08-04T01:54:01.482Z,25.99
2018-08-04T01:55:01.619Z,25.91
2018-08-04T01:56:01.474Z,25.93
2018-08-04T01:57:01.588Z,25.87
2018-08-04T01:58:01.524Z,25.85
2018-08-04T01:59:01.635Z,25.87
2018-08-04T02:00:01.628Z,25.81
2018-08-04T02:01:01.522Z,25.78
2018-08-04T02:02:01.506Z,25.77
2018-08-04T02:03:01.498Z,25.78
2018-08-04T02:04:01.539Z,25.77
2018-08-04T02:05:01.879Z,25.72
2018-08-04T02:06:01.506Z,25.75
2018-08-04T02:07:01.495Z,25.74
2018-08-04T02:08:01.515Z,25.75
2018-08-04T02:09:01.634Z,25.7
2018-08-04T02:10:01.531Z,25.71
2018-08-04T02:11:01.530Z,25.7
2018-08-04T02:12:01.703Z,25.71
2018-08-04T02:13:01.507Z,25.68
2018-08-04T02:14:01.556Z,25.68
2018-08-04T02:15:01.511Z,25.67
2018-08-04T02:16:01.556Z,25.67
2018-08-04T02:17:01.803Z,25.64
2018-08-04T02:18:01.539Z,25.6
2018-08-04T02:19:01.529Z,25.58
2018-08-04T02:20:01.516Z,25.58
2018-08-04T02:21:01.553Z,25.56
2018-08-04T02:22:01.511Z,25.54
2018-08-04T02:23:01.507Z,25.53
2018-08-04T02:24:01.530Z,25.56
2018-08-04T02:25:01.533Z,25.54
2018-08-04T02:26:01.565Z,25.56
2018-08-04T02:27:01.513Z,25.5
2018-08-04T02:28:01.520Z,25.53
2018-08-04T02:29:01.533Z,25.5
2018-08-04T02:30:01.556Z,25.5
2018-08-04T02:31:01.526Z,25.54
2018-08-04T02:32:01.566Z,25.51
2018-08-04T02:33:01.593Z,25.5
2018-08-04T02:34:01.539Z,25.51
2018-08-04T02:35:01.566Z,25.53
2018-08-04T02:36:01.543Z,25.51
2018-08-04T02:37:01.567Z,25.51
2018-08-04T02:38:01.526Z,25.48
2018-08-04T02:39:01.576Z,25.44
2018-08-04T02:40:01.544Z,25.46
2018-08-04T02:41:01.547Z,25.43
2018-08-04T02:42:01.777Z,25.43
2018-08-04T02:43:01.527Z,25.41
2018-08-04T02:44:01.575Z,25.43
2018-08-04T02:45:01.791Z,25.41
2018-08-04T02:46:01.781Z,25.41
2018-08-04T02:47:01.571Z,25.37
2018-08-04T02:48:01.623Z,25.4
2018-08-04T02:49:01.685Z,25.37
2018-08-04T02:50:01.642Z,25.36
2018-08-04T02:51:01.573Z,25.34
2018-08-04T02:52:01.816Z,25.32
2018-08-04T02:53:01.576Z,25.32
2018-08-04T02:54:01.590Z,25.34
2018-08-04T02:55:01.655Z,25.3
2018-08-04T02:56:01.688Z,25.26
2018-08-04T02:57:01.622Z,25.2
2018-08-04T02:58:01.614Z,25.19
2018-08-04T02:59:01.595Z,25.19
2018-08-04T03:00:01.670Z,25.19
2018-08-04T03:01:01.758Z,25.19
2018-08-04T03:02:01.611Z,25.16
2018-08-04T03:03:01.561Z,25.12
2018-08-04T03:04:01.802Z,25.13
2018-08-04T03:05:01.741Z,25.12
2018-08-04T03:06:01.604Z,25.12
2018-08-04T03:07:01.575Z,25.12
2018-08-04T03:08:01.597Z,25.12
2018-08-04T03:09:01.950Z,25.1
2018-08-04T03:10:01.715Z,25.09
2018-08-04T03:11:01.611Z,25.09
2018-08-04T03:12:01.728Z,25.08
2018-08-04T03:13:01.632Z,25.08
2018-08-04T03:14:01.804Z,25.09
2018-08-04T03:15:01.708Z,25.09
2018-08-04T03:16:01.604Z,25.03
2018-08-04T03:17:01.609Z,25.02
2018-08-04T03:18:01.591Z,24.97
2018-08-04T03:19:01.745Z,24.94
2018-08-04T03:20:01.683Z,24.94
2018-08-04T03:21:01.603Z,24.94
2018-08-04T03:22:01.598Z,24.94
2018-08-04T03:23:01.597Z,24.92
2018-08-04T03:24:01.606Z,24.92
2018-08-04T03:25:01.751Z,24.94
2018-08-04T03:26:01.663Z,24.94
2018-08-04T03:27:01.624Z,24.92
2018-08-04T03:28:01.698Z,24.91
2018-08-04T03:29:01.642Z,24.91
2018-08-04T03:30:01.813Z,24.89
2018-08-04T03:31:01.632Z,24.88
2018-08-04T03:32:01.702Z,24.88
2018-08-04T03:33:01.661Z,24.86
2018-08-04T03:34:01.711Z,24.88
2018-08-04T03:35:01.661Z,24.86
2018-08-04T03:36:01.682Z,24.85
2018-08-04T03:37:01.626Z,24.88
2018-08-04T03:38:01.615Z,24.86
2018-08-04T03:39:01.672Z,24.86
2018-08-04T03:40:01.634Z,24.83
2018-08-04T03:41:01.620Z,24.83
2018-08-04T03:42:01.626Z,24.81
2018-08-04T03:43:01.654Z,24.81
2018-08-04T03:44:01.660Z,24.81
2018-08-04T03:45:01.628Z,24.81
2018-08-04T03:46:01.669Z,24.78
2018-08-04T03:47:01.639Z,24.77
2018-08-04T03:48:01.631Z,24.79
2018-08-04T03:49:01.664Z,24.77
2018-08-04T03:50:01.673Z,24.78
2018-08-04T03:51:01.681Z,24.74
2018-08-04T03:52:01.687Z,24.74
2018-08-04T03:53:01.619Z,24.72
2018-08-04T03:54:01.645Z,24.74
2018-08-04T03:55:01.645Z,24.72
2018-08-04T03:56:01.647Z,24.71
2018-08-04T03:57:02.091Z,24.7
2018-08-04T03:58:01.828Z,24.68
2018-08-04T03:59:01.630Z,24.68
2018-08-04T04:00:01.847Z,24.64
2018-08-04T04:01:01.639Z,24.6
2018-08-04T04:02:01.701Z,24.58
2018-08-04T04:03:01.698Z,24.53
2018-08-04T04:04:01.739Z,24.57
2018-08-04T04:05:01.658Z,24.54
2018-08-04T04:06:01.647Z,24.55
2018-08-04T04:07:01.664Z,24.53
2018-08-04T04:08:01.713Z,24.54
2018-08-04T04:09:01.695Z,24.53
2018-08-04T04:10:01.657Z,24.51
2018-08-04T04:11:01.836Z,24.54
2018-08-04T04:12:01.717Z,24.54
2018-08-04T04:13:01.723Z,24.53
2018-08-04T04:14:01.704Z,24.57
2018-08-04T04:15:01.701Z,24.55
2018-08-04T04:16:01.715Z,24.58
2018-08-04T04:17:01.714Z,24.57
2018-08-04T04:18:01.775Z,24.55
2018-08-04T04:19:01.809Z,24.51
2018-08-04T04:20:01.743Z,24.48
2018-08-04T04:21:02.041Z,24.46
2018-08-04T04:22:01.716Z,24.48
2018-08-04T04:23:01.748Z,24.46
2018-08-04T04:24:01.823Z,24.44
2018-08-04T04:25:01.706Z,24.47
2018-08-04T04:26:01.732Z,24.46
2018-08-04T04:27:01.717Z,24.43
2018-08-04T04:28:01.668Z,24.43
2018-08-04T04:29:01.685Z,24.43
2018-08-04T04:30:01.702Z,24.44
2018-08-04T04:31:01.707Z,24.43
2018-08-04T04:32:01.689Z,24.44
2018-08-04T04:33:01.928Z,24.43
2018-08-04T04:34:01.813Z,24.44
2018-08-04T04:35:01.696Z,24.44
2018-08-04T04:36:01.803Z,24.44
2018-08-04T04:37:01.751Z,24.46
2018-08-04T04:38:01.727Z,24.5
2018-08-04T04:39:01.956Z,24.48
2018-08-04T04:40:01.694Z,24.46
2018-08-04T04:41:01.960Z,24.47
2018-08-04T04:42:01.685Z,24.43
2018-08-04T04:43:01.893Z,24.39
2018-08-04T04:44:01.912Z,24.42
2018-08-04T04:45:02.098Z,24.4
2018-08-04T04:46:01.961Z,24.44
2018-08-04T04:47:01.751Z,24.43
2018-08-04T04:48:01.776Z,24.44
2018-08-04T04:49:01.929Z,24.48
2018-08-04T04:50:01.982Z,24.48
2018-08-04T04:51:01.965Z,24.48
2018-08-04T04:52:01.739Z,24.47
2018-08-04T04:53:01.744Z,24.44
2018-08-04T04:54:01.718Z,24.46
2018-08-04T04:55:01.693Z,24.47
2018-08-04T04:56:01.710Z,24.46
2018-08-04T04:57:01.740Z,24.5
2018-08-04T04:58:01.758Z,24.51
2018-08-04T04:59:01.800Z,24.5
2018-08-04T05:00:01.738Z,24.53
2018-08-04T05:01:01.785Z,24.54
2018-08-04T05:02:01.974Z,24.55
2018-08-04T05:03:01.747Z,24.54
2018-08-04T05:04:01.759Z,24.55
2018-08-04T05:05:01.761Z,24.58
2018-08-04T05:06:01.736Z,24.53
2018-08-04T05:07:01.937Z,24.53
2018-08-04T05:08:01.775Z,24.6
2018-08-04T05:09:01.726Z,24.6
2018-08-04T05:10:01.748Z,24.64
2018-08-04T05:11:01.738Z,24.65
2018-08-04T05:12:01.757Z,24.65
2018-08-04T05:13:01.989Z,24.67
2018-08-04T05:14:01.769Z,24.67
2018-08-04T05:15:01.758Z,24.72
2018-08-04T05:16:01.731Z,24.74
2018-08-04T05:17:01.779Z,24.75
2018-08-04T05:18:01.747Z,24.74
2018-08-04T05:19:01.903Z,24.75
2018-08-04T05:20:01.778Z,24.74
2018-08-04T05:21:01.769Z,24.72
2018-08-04T05:22:01.752Z,24.77
2018-08-04T05:23:01.762Z,24.78
2018-08-04T05:24:01.990Z,24.79
2018-08-04T05:25:01.745Z,24.82
2018-08-04T05:26:01.760Z,24.85
2018-08-04T05:27:01.812Z,24.89
2018-08-04T05:28:01.835Z,24.88
2018-08-04T05:29:01.961Z,24.88
2018-08-04T05:30:01.852Z,24.89
2018-08-04T05:31:02.116Z,24.92
2018-08-04T05:32:02.071Z,24.91
2018-08-04T05:33:01.771Z,24.91
2018-08-04T05:34:01.788Z,24.92
2018-08-04T05:35:01.788Z,24.94
2018-08-04T05:36:01.773Z,24.94
2018-08-04T05:37:01.948Z,24.95
2018-08-04T05:38:01.803Z,24.98
2018-08-04T05:39:01.837Z,24.99
2018-08-04T05:40:01.785Z,25.02
2018-08-04T05:41:01.783Z,25.03
2018-08-04T05:42:01.914Z,25.05
2018-08-04T05:43:02.082Z,25.08
2018-08-04T05:44:01.922Z,25.12
2018-08-04T05:45:01.976Z,25.13
2018-08-04T05:46:01.798Z,25.15
2018-08-04T05:47:01.845Z,25.17
2018-08-04T05:48:01.870Z,25.22
2018-08-04T05:49:01.840Z,25.23
2018-08-04T05:50:02.269Z,25.26
2018-08-04T05:51:01.777Z,25.27
2018-08-04T05:52:01.975Z,25.25
2018-08-04T05:53:01.842Z,25.27
2018-08-04T05:54:01.821Z,25.3
2018-08-04T05:55:01.838Z,25.33
2018-08-04T05:56:02.096Z,25.36
2018-08-04T05:57:01.802Z,25.38
2018-08-04T05:58:02.033Z,25.38
2018-08-04T05:59:02.000Z,25.38
2018-08-04T06:00:01.853Z,25.43
2018-08-04T06:01:01.839Z,25.44
2018-08-04T06:02:02.425Z,25.46
2018-08-04T06:03:01.793Z,25.44
2018-08-04T06:04:01.807Z,25.5
2018-08-04T06:05:01.923Z,25.51
2018-08-04T06:06:01.823Z,25.51
2018-08-04T06:07:01.808Z,25.56
2018-08-04T06:08:01.859Z,25.56
2018-08-04T06:09:01.799Z,25.58
2018-08-04T06:10:01.810Z,25.6
2018-08-04T06:11:01.863Z,25.6
2018-08-04T06:12:01.841Z,25.63
2018-08-04T06:13:01.808Z,25.64
2018-08-04T06:14:01.878Z,25.64
2018-08-04T06:15:01.879Z,25.68
2018-08-04T06:16:01.828Z,25.71
2018-08-04T06:17:01.806Z,25.74
2018-08-04T06:18:01.833Z,25.72
2018-08-04T06:19:01.826Z,25.7
2018-08-04T06:20:01.837Z,25.67
2018-08-04T06:21:01.883Z,25.71
2018-08-04T06:22:01.954Z,25.74
2018-08-04T06:23:01.852Z,25.72
2018-08-04T06:24:01.975Z,25.77
2018-08-04T06:25:01.962Z,25.8
2018-08-04T06:26:01.842Z,25.82
2018-08-04T06:27:01.808Z,25.85
2018-08-04T06:28:01.841Z,25.85
2018-08-04T06:29:01.822Z,25.85
2018-08-04T06:30:02.235Z,25.88
2018-08-04T06:31:02.159Z,25.89
2018-08-04T06:32:01.836Z,25.92
2018-08-04T06:33:01.843Z,25.92
2018-08-04T06:34:01.830Z,25.98
2018-08-04T06:35:01.990Z,25.98
2018-08-04T06:36:02.142Z,26.02
2018-08-04T06:37:01.890Z,26.05
2018-08-04T06:38:01.995Z,26.08
2018-08-04T06:39:02.054Z,26.1
2018-08-04T06:40:02.006Z,26.15
2018-08-04T06:41:01.968Z,26.17
2018-08-04T06:42:01.986Z,26.22
2018-08-04T06:43:01.980Z,26.23
2018-08-04T06:44:01.864Z,26.26
2018-08-04T06:45:01.983Z,26.29
2018-08-04T06:46:01.980Z,26.26
2018-08-04T06:47:01.874Z,26.32
2018-08-04T06:48:01.948Z,26.32
2018-08-04T06:49:01.869Z,26.34
2018-08-04T06:50:01.928Z,26.36
2018-08-04T06:51:01.986Z,26.42
2018-08-04T06:52:01.916Z,26.4
2018-08-04T06:53:02.209Z,26.42
2018-08-04T06:54:02.026Z,26.46
2018-08-04T06:55:01.998Z,26.48
2018-08-04T06:56:02.010Z,26.5
2018-08-04T06:57:02.000Z,26.53
2018-08-04T06:58:02.082Z,26.54
2018-08-04T06:59:01.937Z,26.55
2018-08-04T07:00:02.093Z,26.54
2018-08-04T07:01:02.209Z,26.58
2018-08-04T07:02:01.973Z,26.54
2018-08-04T07:03:01.918Z,26.55
2018-08-04T07:04:02.140Z,26.58
2018-08-04T07:05:01.935Z,26.6
2018-08-04T07:06:01.902Z,26.6
2018-08-04T07:07:01.955Z,26.61
2018-08-04T07:08:01.888Z,26.65
2018-08-04T07:09:02.046Z,26.71
2018-08-04T07:10:01.932Z,26.72
2018-08-04T07:11:01.955Z,26.77
2018-08-04T07:12:03.454Z,26.79
2018-08-04T07:13:02.695Z,26.85
2018-08-04T07:14:01.913Z,26.88
2018-08-04T07:15:02.059Z,26.89
2018-08-04T07:16:01.927Z,26.95
2018-08-04T07:17:01.921Z,26.99
2018-08-04T07:18:02.001Z,27.01
2018-08-04T07:19:01.946Z,27.05
2018-08-04T07:20:01.995Z,27.06
2018-08-04T07:21:01.981Z,27.06
2018-08-04T07:22:01.938Z,27.07
2018-08-04T07:23:02.317Z,27.12
2018-08-04T07:24:01.996Z,27.17
2018-08-04T07:25:01.953Z,27.22
2018-08-04T07:26:01.911Z,27.22
2018-08-04T07:27:01.941Z,27.23
2018-08-04T07:28:01.905Z,27.26
2018-08-04T07:29:02.329Z,27.3
2018-08-04T07:30:01.954Z,27.33
2018-08-04T07:31:01.930Z,27.37
2018-08-04T07:32:01.965Z,27.43
2018-08-04T07:33:01.916Z,27.43
2018-08-04T07:34:01.934Z,27.43
2018-08-04T07:35:01.939Z,27.39
2018-08-04T07:36:01.962Z,27.44
2018-08-04T07:37:01.952Z,27.39
2018-08-04T07:38:01.969Z,27.43
2018-08-04T07:39:01.955Z,27.46
2018-08-04T07:40:01.944Z,27.47
2018-08-04T07:41:02.282Z,27.53
2018-08-04T07:42:01.995Z,27.57
2018-08-04T07:43:01.953Z,27.56
2018-08-04T07:44:01.980Z,27.57
2018-08-04T07:45:01.934Z,27.58
2018-08-04T07:46:01.956Z,27.6
2018-08-04T07:47:02.101Z,27.64
2018-08-04T07:48:01.935Z,27.68
2018-08-04T07:49:02.187Z,27.72
2018-08-04T07:50:02.071Z,27.78
2018-08-04T07:51:01.984Z,27.84
2018-08-04T07:52:02.011Z,27.89
2018-08-04T07:53:01.976Z,27.91
2018-08-04T07:54:02.313Z,27.93
2018-08-04T07:55:01.968Z,27.95
2018-08-04T07:56:01.939Z,27.99
2018-08-04T07:57:01.955Z,28.05
2018-08-04T07:58:01.990Z,28.08
2018-08-04T07:59:01.978Z,28.13
2018-08-04T08:00:01.996Z,28.13
2018-08-04T08:01:01.995Z,28.12
2018-08-04T08:02:02.019Z,28.11
2018-08-04T08:03:02.006Z,28.12
2018-08-04T08:04:01.979Z,28.18
2018-08-04T08:05:02.209Z,28.2
2018-08-04T08:06:01.953Z,28.24
2018-08-04T08:07:02.184Z,28.29
2018-08-04T08:08:02.032Z,28.33
2018-08-04T08:09:02.040Z,28.4
2018-08-04T08:10:01.979Z,28.48
2018-08-04T08:11:02.320Z,28.52
2018-08-04T08:12:01.980Z,28.58
2018-08-04T08:13:02.037Z,28.66
2018-08-04T08:14:02.002Z,28.66
2018-08-04T08:15:02.079Z,28.73
2018-08-04T08:16:02.160Z,28.79
2018-08-04T08:17:01.998Z,28.85
2018-08-04T08:18:02.003Z,28.95
2018-08-04T08:19:01.967Z,28.99
2018-08-04T08:20:02.175Z,29.05
2018-08-04T08:21:02.392Z,29.13
2018-08-04T08:22:01.983Z,29.19
2018-08-04T08:23:02.403Z,29.29
2018-08-04T08:24:02.146Z,29.33
2018-08-04T08:25:01.981Z,29.39
2018-08-04T08:26:02.000Z,29.39
2018-08-04T08:27:03.478Z,29.4
2018-08-04T08:28:02.066Z,29.44
2018-08-04T08:29:02.204Z,29.46
2018-08-04T08:30:02.007Z,29.51
2018-08-04T08:31:01.998Z,29.53
2018-08-04T08:32:02.023Z,29.54
2018-08-04T08:33:02.004Z,29.56
2018-08-04T08:34:02.011Z,29.58
2018-08-04T08:35:02.011Z,29.61
2018-08-04T08:36:02.001Z,29.65
2018-08-04T08:37:02.054Z,29.71
2018-08-04T08:38:02.278Z,29.74
2018-08-04T08:39:02.013Z,29.78
2018-08-04T08:40:02.026Z,29.82
2018-08-04T08:41:02.044Z,29.87
2018-08-04T08:42:02.061Z,29.91
2018-08-04T08:43:02.002Z,29.94
2018-08-04T08:44:02.031Z,29.87
2018-08-04T08:45:02.027Z,29.84
2018-08-04T08:46:02.054Z,29.89
2018-08-04T08:47:02.192Z,29.95
2018-08-04T08:48:02.026Z,29.98
2018-08-04T08:49:02.081Z,30.06
2018-08-04T08:50:02.481Z,30.09
2018-08-04T08:51:02.045Z,30.16
2018-08-04T08:52:02.053Z,30.18
2018-08-04T08:53:02.346Z,30.23
2018-08-04T08:54:02.874Z,30.27
2018-08-04T08:55:02.069Z,30.36
2018-08-04T08:56:02.055Z,30.41
2018-08-04T08:57:02.050Z,30.44
2018-08-04T08:58:02.057Z,30.47
2018-08-04T08:59:02.047Z,30.48
2018-08-04T09:00:02.064Z,30.5
2018-08-04T09:01:02.077Z,30.5
2018-08-04T09:02:02.040Z,30.53
2018-08-04T09:03:02.101Z,30.63
2018-08-04T09:04:02.083Z,30.61
2018-08-04T09:05:02.265Z,30.7
2018-08-04T09:06:02.049Z,30.68
2018-08-04T09:07:02.029Z,30.73
2018-08-04T09:08:02.041Z,30.74
2018-08-04T09:09:02.038Z,30.77
2018-08-04T09:10:02.088Z,30.79
2018-08-04T09:11:02.088Z,30.84
2018-08-04T09:12:02.197Z,30.88
2018-08-04T09:13:02.191Z,30.88
2018-08-04T09:14:02.066Z,30.93
2018-08-04T09:15:02.088Z,30.96
2018-08-04T09:16:02.084Z,31.01
2018-08-04T09:17:02.172Z,31.02
2018-08-04T09:18:02.117Z,31.05
2018-08-04T09:19:02.141Z,31.02
2018-08-04T09:20:02.075Z,31.05
2018-08-04T09:21:02.077Z,31.12
2018-08-04T09:22:02.204Z,31.19
2018-08-04T09:23:02.260Z,31.2
2018-08-04T09:24:02.241Z,31.32
2018-08-04T09:25:02.070Z,31.34
2018-08-04T09:26:02.164Z,31.34
2018-08-04T09:27:02.191Z,31.37
2018-08-04T09:28:02.274Z,31.44
2018-08-04T09:29:02.096Z,31.38
2018-08-04T09:30:02.106Z,31.33
2018-08-04T09:31:02.178Z,31.33
2018-08-04T09:32:02.162Z,31.36
2018-08-04T09:33:02.082Z,31.57
2018-08-04T09:34:02.143Z,31.55
2018-08-04T09:35:02.070Z,31.55
2018-08-04T09:36:02.071Z,31.53
2018-08-04T09:37:02.155Z,31.6
2018-08-04T09:38:02.369Z,31.65
2018-08-04T09:39:02.235Z,31.75
2018-08-04T09:40:02.090Z,31.91
2018-08-04T09:41:02.301Z,31.82
2018-08-04T09:42:02.315Z,31.93
2018-08-04T09:43:02.109Z,32.09
2018-08-04T09:44:02.083Z,32.23
2018-08-04T09:45:02.133Z,32.27
2018-08-04T09:46:02.216Z,32.26
2018-08-04T09:47:02.720Z,32.18
2018-08-04T09:48:02.323Z,32.18
2018-08-04T09:49:02.101Z,32.23
2018-08-04T09:50:02.333Z,32.19
2018-08-04T09:51:02.098Z,32.22
2018-08-04T09:52:03.085Z,32.15
2018-08-04T09:53:02.130Z,32.27
2018-08-04T09:54:02.103Z,32.37
2018-08-04T09:55:02.202Z,32.35
2018-08-04T09:56:02.125Z,32.3
2018-08-04T09:57:02.123Z,32.44
2018-08-04T09:58:02.132Z,32.44
2018-08-04T09:59:02.104Z,32.47
2018-08-04T10:00:02.109Z,32.5
2018-08-04T10:01:02.158Z,32.52
2018-08-04T10:02:02.115Z,32.47
2018-08-04T10:03:02.186Z,32.49
2018-08-04T10:04:02.176Z,32.49
2018-08-04T10:05:04.476Z,32.42
2018-08-04T10:06:02.200Z,32.39
2018-08-04T10:07:02.242Z,32.47
2018-08-04T10:08:02.125Z,32.5
2018-08-04T10:09:02.137Z,32.53
2018-08-04T10:10:02.175Z,32.56
2018-08-04T10:11:02.139Z,32.6
2018-08-04T10:12:02.133Z,32.63
2018-08-04T10:13:02.183Z,32.71
2018-08-04T10:14:02.168Z,32.66
2018-08-04T10:15:02.236Z,32.66
2018-08-04T10:16:02.157Z,32.61
2018-08-04T10:17:02.164Z,32.69
2018-08-04T10:18:02.138Z,32.78
2018-08-04T10:19:02.184Z,32.82
2018-08-04T10:20:02.177Z,32.91
2018-08-04T10:21:02.175Z,32.87
2018-08-04T10:22:02.197Z,32.88
2018-08-04T10:23:02.159Z,33.01
2018-08-04T10:24:02.231Z,32.94
2018-08-04T10:25:02.218Z,32.89
2018-08-04T10:26:02.436Z,32.91
2018-08-04T10:27:02.310Z,32.89
2018-08-04T10:28:02.287Z,32.74
2018-08-04T10:29:02.160Z,32.8
2018-08-04T10:30:02.187Z,32.88
2018-08-04T10:31:02.775Z,32.91
2018-08-04T10:32:02.784Z,33.09
2018-08-04T10:33:02.206Z,33.11
2018-08-04T10:34:02.225Z,33.3
2018-08-04T10:35:02.446Z,33.48
2018-08-04T10:36:02.322Z,33.39
2018-08-04T10:37:02.241Z,33.34
2018-08-04T10:38:03.237Z,33.39
2018-08-04T10:39:02.175Z,33.42
2018-08-04T10:40:02.366Z,33.46
2018-08-04T10:41:02.533Z,33.43
2018-08-04T10:42:03.218Z,33.49
2018-08-04T10:43:02.295Z,33.66
2018-08-04T10:44:06.963Z,33.8
2018-08-04T10:45:02.368Z,33.98
2018-08-04T10:46:02.247Z,33.94
2018-08-04T10:47:02.213Z,33.85
2018-08-04T10:48:02.280Z,33.85
2018-08-04T10:49:02.255Z,33.84
2018-08-04T10:50:02.374Z,33.85
2018-08-04T10:51:02.414Z,33.8
2018-08-04T10:52:02.276Z,33.67
2018-08-04T10:53:02.246Z,33.73
2018-08-04T10:54:02.255Z,33.74
2018-08-04T10:55:02.270Z,33.76
2018-08-04T10:56:02.222Z,33.77
2018-08-04T10:57:02.405Z,33.57
2018-08-04T10:58:02.236Z,33.5
2018-08-04T10:59:02.211Z,33.63
2018-08-04T11:00:02.225Z,33.61
2018-08-04T11:01:02.368Z,33.64
2018-08-04T11:02:02.217Z,33.63
2018-08-04T11:03:02.193Z,33.67
2018-08-04T11:04:02.335Z,33.67
2018-08-04T11:05:02.216Z,33.7
2018-08-04T11:06:02.287Z,33.85
2018-08-04T11:07:02.376Z,34.04
2018-08-04T11:08:02.326Z,33.95
2018-08-04T11:09:02.390Z,33.88
2018-08-04T11:10:02.497Z,33.94
2018-08-04T11:11:02.248Z,33.98
2018-08-04T11:12:02.282Z,34.05
2018-08-04T11:13:02.417Z,34.04
2018-08-04T11:14:02.736Z,34.16
2018-08-04T11:15:02.636Z,34.22
2018-08-04T11:16:02.333Z,34.21
2018-08-04T11:17:02.283Z,34.19
2018-08-04T11:18:02.479Z,34.29
2018-08-04T11:19:02.452Z,34.21
2018-08-04T11:20:03.389Z,34.12
2018-08-04T11:21:02.258Z,34.11
2018-08-04T11:22:03.520Z,34.15
2018-08-04T11:23:04.422Z,34.19
2018-08-04T11:24:02.504Z,34.34
2018-08-04T11:25:02.384Z,34.32
2018-08-04T11:26:02.295Z,34.36
2018-08-04T11:27:02.307Z,34.35
2018-08-04T11:28:02.404Z,34.45
2018-08-04T11:29:02.421Z,34.42
2018-08-04T11:30:02.419Z,34.53
2018-08-04T11:31:02.442Z,34.53
2018-08-04T11:32:02.435Z,34.59
2018-08-04T11:33:02.439Z,34.63
2018-08-04T11:34:02.345Z,34.65
2018-08-04T11:35:02.354Z,34.59
2018-08-04T11:36:02.358Z,34.53
2018-08-04T11:37:03.396Z,34.46
2018-08-04T11:38:02.481Z,34.36
2018-08-04T11:39:02.746Z,34.28
2018-08-04T11:40:02.506Z,34.25
2018-08-04T11:41:02.393Z,34.16
2018-08-04T11:42:02.403Z,34.08
2018-08-04T11:43:02.404Z,34
2018-08-04T11:44:02.409Z,34.02
2018-08-04T11:45:02.536Z,34.02
2018-08-04T11:46:02.425Z,34.08
2018-08-04T11:47:02.440Z,33.98
2018-08-04T11:48:02.655Z,33.97
2018-08-04T11:49:02.448Z,33.9
2018-08-04T11:50:02.466Z,33.88
2018-08-04T11:51:02.312Z,33.9
2018-08-04T11:52:02.473Z,33.93
2018-08-04T11:53:02.388Z,33.9
2018-08-04T11:54:02.383Z,33.95
2018-08-04T11:55:02.497Z,33.94
2018-08-04T11:56:03.437Z,33.93
2018-08-04T11:57:02.315Z,33.81
2018-08-04T11:58:02.406Z,33.81
2018-08-04T11:59:02.321Z,33.81
2018-08-04T12:00:02.338Z,33.81
2018-08-04T12:01:02.453Z,33.81
2018-08-04T12:02:02.798Z,33.9
2018-08-04T12:03:02.309Z,33.84
2018-08-04T12:04:02.454Z,33.88
2018-08-04T12:05:02.354Z,33.9
2018-08-04T12:06:02.330Z,33.93
2018-08-04T12:07:02.471Z,33.95
2018-08-04T12:08:02.315Z,34.04
2018-08-04T12:09:02.389Z,34.1
2018-08-04T12:10:02.409Z,34.16
2018-08-04T12:11:02.506Z,34.26
2018-08-04T12:12:02.367Z,34.34
2018-08-04T12:13:02.527Z,34.42
2018-08-04T12:14:02.346Z,34.52
2018-08-04T12:15:02.490Z,34.62
2018-08-04T12:16:02.442Z,34.63
2018-08-04T12:17:02.383Z,34.7
2018-08-04T12:18:02.570Z,34.74
2018-08-04T12:19:02.449Z,34.79
2018-08-04T12:20:02.836Z,34.84
2018-08-04T12:21:02.950Z,34.87
2018-08-04T12:22:02.401Z,35.04
2018-08-04T12:23:02.334Z,35.05
2018-08-04T12:24:02.347Z,35.11
2018-08-04T12:25:02.531Z,35.15
2018-08-04T12:26:02.394Z,35.18
2018-08-04T12:27:02.448Z,35.24
2018-08-04T12:28:03.548Z,35.29
2018-08-04T12:29:02.343Z,35.31
2018-08-04T12:30:02.528Z,35.35
2018-08-04T12:31:02.441Z,35.35
2018-08-04T12:32:02.442Z,35.38
2018-08-04T12:33:02.500Z,35.39
2018-08-04T12:34:02.457Z,35.42
2018-08-04T12:35:02.328Z,35.42
2018-08-04T12:36:02.326Z,35.49
2018-08-04T12:37:02.479Z,35.25
2018-08-04T12:38:02.343Z,35.25
2018-08-04T12:39:02.336Z,35.25
2018-08-04T12:40:02.500Z,35.35
2018-08-04T12:41:02.499Z,35.41
2018-08-04T12:42:02.367Z,35.44
2018-08-04T12:43:02.416Z,35.41
2018-08-04T12:44:02.375Z,35.46
2018-08-04T12:45:02.355Z,35.34
2018-08-04T12:46:02.538Z,35.24
2018-08-04T12:47:02.374Z,35.1
2018-08-04T12:48:02.370Z,35.11
2018-08-04T12:49:02.471Z,35.14
2018-08-04T12:50:02.347Z,35.17
2018-08-04T12:51:02.370Z,35.28
2018-08-04T12:52:02.481Z,35.41
2018-08-04T12:53:02.363Z,35.42
2018-08-04T12:54:02.383Z,35.46
2018-08-04T12:55:02.509Z,35.46